Time;durP1;ratioP1;P1;durP2;ratioP2;P2;SDS_P1;SDS_P2;PMS_P1;PMS_P2;Temp;Humidity;BMP_temperature;BMP_pressure;BME280_temperature;BME280_humidity;BME280_pressure;Samples;Min_cycle;Max_cycle;Signal;HPM_P1;HPM_P2
2021/12/19 00:00:25;;;;;;;11.17;7.80;;;;;;;;;;5037392;28;20295;-83
2021/12/19 00:03:18;;;;;;;45.47;27.80;;;;;;;;;;5033708;28;20195;-83
2021/12/19 00:08:45;;;;;;;5.30;3.33;;;;;;;;;;5038150;28;20299;-83
2021/12/19 00:11:12;;;;;;;9.17;3.27;;;;;;;;;;5034383;28;20203;-84
2021/12/19 00:13:40;;;;;;;7.57;3.80;;;;;;;;;;5034841;28;20710;-84
2021/12/19 00:16:09;;;;;;;6.70;3.80;;;;;;;;;;5033628;28;20243;-84
2021/12/19 00:18:37;;;;;;;6.63;3.50;;;;;;;;;;5035231;28;20306;-84
2021/12/19 00:21:04;;;;;;;8.47;3.93;;;;;;;;;;5033879;28;20199;-82
2021/12/19 00:23:32;;;;;;;5.83;3.37;;;;;;;;;;5036124;28;20218;-82
2021/12/19 00:25:59;;;;;;;7.23;3.53;;;;;;;;;;5035233;28;20235;-83
2021/12/19 00:28:26;;;;;;;6.50;2.97;;;;;;;;;;5037446;28;20317;-82
2021/12/19 00:30:53;;;;;;;11.33;6.57;;;;;;;;;;5037689;28;20212;-83
2021/12/19 00:33:22;;;;;;;6.43;3.43;;;;;;;;;;5038332;28;20675;-84
2021/12/19 00:35:49;;;;;;;5.57;3.17;;;;;;;;;;5027526;28;20711;-82
2021/12/19 00:38:16;;;;;;;7.23;3.37;;;;;;;;;;5032957;28;20205;-81
2021/12/19 00:40:44;;;;;;;8.50;3.30;;;;;;;;;;5037284;28;20233;-82
2021/12/19 00:43:22;;;;;;;7.03;3.27;;;;;;;;;;5037319;28;20203;-83
2021/12/19 00:45:50;;;;;;;6.37;3.13;;;;;;;;;;5035363;28;20222;-82
2021/12/19 00:48:18;;;;;;;6.67;3.27;;;;;;;;;;5028636;28;20205;-82
2021/12/19 00:50:46;;;;;;;11.17;3.40;;;;;;;;;;5036132;28;20283;-82
2021/12/19 00:53:13;;;;;;;6.97;3.67;;;;;;;;;;5036695;28;20302;-82
2021/12/19 00:55:41;;;;;;;8.60;3.57;;;;;;;;;;5035460;28;20291;-82
2021/12/19 00:58:08;;;;;;;6.63;3.73;;;;;;;;;;5034168;28;20659;-82
2021/12/19 01:00:36;;;;;;;9.20;3.80;;;;;;;;;;5044531;28;20238;-82
2021/12/19 01:03:03;;;;;;;7.70;3.50;;;;;;;;;;5049161;28;20224;-82
2021/12/19 01:05:32;;;;;;;8.87;5.57;;;;;;;;;;5046056;28;20219;-82
2021/12/19 01:08:01;;;;;;;10.57;4.57;;;;;;;;;;5042895;28;20204;-83
2021/12/19 01:10:28;;;;;;;10.07;5.20;;;;;;;;;;5036001;28;20251;-82
2021/12/19 01:12:55;;;;;;;8.37;4.40;;;;;;;;;;5035489;28;20216;-84
2021/12/19 01:15:23;;;;;;;7.53;3.70;;;;;;;;;;5035006;28;20878;-83
2021/12/19 01:17:50;;;;;;;9.30;4.53;;;;;;;;;;5039454;28;20207;-82
2021/12/19 01:20:20;;;;;;;10.77;5.00;;;;;;;;;;5038038;28;20290;-82
2021/12/19 01:22:47;;;;;;;13.63;5.30;;;;;;;;;;5035153;28;20267;-82
2021/12/19 01:25:16;;;;;;;13.07;5.03;;;;;;;;;;5037762;28;20220;-81
2021/12/19 01:27:43;;;;;;;13.30;4.80;;;;;;;;;;5037868;28;20617;-82
2021/12/19 01:30:12;;;;;;;12.77;4.70;;;;;;;;;;5038099;28;20319;-82
2021/12/19 01:32:39;;;;;;;12.20;5.30;;;;;;;;;;5035662;28;20262;-82
2021/12/19 01:35:08;;;;;;;13.37;5.23;;;;;;;;;;5038751;28;20326;-83
2021/12/19 01:37:36;;;;;;;10.20;4.83;;;;;;;;;;5038227;28;20649;-82
2021/12/19 01:40:04;;;;;;;14.97;5.47;;;;;;;;;;5039294;28;20199;-83
2021/12/19 01:42:33;;;;;;;12.13;5.83;;;;;;;;;;5036453;28;20246;-83
2021/12/19 01:45:01;;;;;;;11.30;5.13;;;;;;;;;;5034796;28;20239;-84
2021/12/19 01:50:31;;;;;;;17.13;5.63;;;;;;;;;;5033781;28;20222;-82
2021/12/19 01:52:58;;;;;;;18.07;5.50;;;;;;;;;;5044056;28;20207;-80
2021/12/19 01:55:25;;;;;;;14.20;5.70;;;;;;;;;;5036950;28;21671;-83
2021/12/19 01:57:54;;;;;;;17.33;5.73;;;;;;;;;;5032117;28;20743;-83
2021/12/19 02:00:23;;;;;;;16.90;5.90;;;;;;;;;;5033672;28;20275;-84
2021/12/19 02:02:51;;;;;;;14.33;6.07;;;;;;;;;;5034260;28;20304;-82
2021/12/19 02:05:18;;;;;;;13.53;5.57;;;;;;;;;;5037238;28;20214;-83
2021/12/19 02:07:46;;;;;;;16.60;6.27;;;;;;;;;;5041765;28;20302;-84
2021/12/19 02:10:14;;;;;;;12.57;5.90;;;;;;;;;;5037600;28;20690;-83
2021/12/19 02:12:41;;;;;;;13.83;5.50;;;;;;;;;;5035998;28;20652;-82
2021/12/19 02:15:11;;;;;;;13.00;5.83;;;;;;;;;;5033366;28;20729;-83
2021/12/19 02:20:12;;;;;;;14.17;6.10;;;;;;;;;;4991031;28;20249;-81
2021/12/19 02:22:39;;;;;;;14.33;5.87;;;;;;;;;;4990968;28;20292;-80
2021/12/19 02:25:07;;;;;;;14.13;6.20;;;;;;;;;;4992239;28;20655;-80
2021/12/19 02:27:35;;;;;;;14.90;6.37;;;;;;;;;;4992317;28;20228;-81
2021/12/19 02:30:02;;;;;;;14.00;6.13;;;;;;;;;;4989438;28;20641;-81
2021/12/19 02:32:30;;;;;;;12.23;5.97;;;;;;;;;;4993103;28;20265;-81
2021/12/19 02:35:01;;;;;;;16.37;6.90;;;;;;;;;;4992550;28;20243;-81
2021/12/19 02:40:36;;;;;;;13.30;5.97;;;;;;;;;;4990972;28;20599;-81
2021/12/19 02:48:36;;;;;;;14.93;6.80;;;;;;;;;;4990930;28;20578;-81
2021/12/19 02:51:03;;;;;;;17.33;6.77;;;;;;;;;;4991085;28;20248;-81
2021/12/19 02:53:33;;;;;;;13.17;6.37;;;;;;;;;;4990852;28;20251;-81
2021/12/19 02:56:01;;;;;;;15.60;6.40;;;;;;;;;;4989908;28;20225;-81
2021/12/19 02:58:28;;;;;;;14.60;6.50;;;;;;;;;;4990497;28;20541;-81
2021/12/19 03:00:56;;;;;;;13.20;6.27;;;;;;;;;;4992923;28;20289;-80
2021/12/19 03:03:23;;;;;;;11.40;5.60;;;;;;;;;;4992481;28;20288;-81
2021/12/19 03:05:50;;;;;;;14.20;6.43;;;;;;;;;;4990755;28;20316;-81
2021/12/19 03:08:18;;;;;;;15.77;6.50;;;;;;;;;;4990294;28;20641;-81
2021/12/19 03:17:56;;;;;;;12.83;6.00;;;;;;;;;;4930652;28;20572;-81
2021/12/19 03:19:09;;;;;;;16.57;6.03;;;;;;;;;;4991498;28;20224;-81
2021/12/19 03:21:36;;;;;;;17.00;6.67;;;;;;;;;;4993100;28;20312;-81
2021/12/19 03:24:04;;;;;;;10.07;5.30;;;;;;;;;;4993219;28;20209;-82
2021/12/19 03:26:32;;;;;;;13.83;5.93;;;;;;;;;;4991083;28;20216;-81
2021/12/19 03:29:00;;;;;;;16.03;6.40;;;;;;;;;;4991670;28;20378;-81
2021/12/19 03:31:27;;;;;;;13.00;6.13;;;;;;;;;;4990938;28;20232;-82
2021/12/19 03:33:55;;;;;;;13.43;6.17;;;;;;;;;;4989094;28;20263;-81
2021/12/19 03:36:22;;;;;;;12.73;6.40;;;;;;;;;;4989129;28;20237;-81
2021/12/19 03:38:57;;;;;;;11.10;5.80;;;;;;;;;;4992979;28;20267;-80
2021/12/19 03:41:33;;;;;;;15.27;6.67;;;;;;;;;;4988265;28;20658;-81
2021/12/19 03:44:01;;;;;;;13.83;6.47;;;;;;;;;;4991185;28;20209;-81
2021/12/19 03:46:29;;;;;;;15.47;7.03;;;;;;;;;;4991073;28;20336;-81
2021/12/19 03:48:56;;;;;;;17.10;6.93;;;;;;;;;;4990542;28;20323;-80
2021/12/19 03:51:23;;;;;;;14.47;6.60;;;;;;;;;;4986347;28;20255;-80
2021/12/19 03:53:50;;;;;;;17.13;7.40;;;;;;;;;;4991651;28;20208;-81
2021/12/19 03:56:18;;;;;;;12.47;6.40;;;;;;;;;;4990850;28;20315;-81
2021/12/19 03:58:45;;;;;;;19.70;7.23;;;;;;;;;;4991672;28;20261;-81
2021/12/19 04:01:14;;;;;;;14.47;6.03;;;;;;;;;;4990864;28;20293;-81
2021/12/19 04:03:41;;;;;;;17.87;7.27;;;;;;;;;;4992485;28;20244;-81
2021/12/19 04:06:09;;;;;;;17.17;7.87;;;;;;;;;;4987234;28;20217;-81
2021/12/19 04:08:36;;;;;;;18.37;7.57;;;;;;;;;;4990979;28;20197;-81
2021/12/19 04:11:03;;;;;;;16.90;7.80;;;;;;;;;;4989506;28;20279;-81
2021/12/19 04:13:30;;;;;;;19.20;7.67;;;;;;;;;;4991949;28;20292;-81
2021/12/19 04:15:57;;;;;;;15.20;6.83;;;;;;;;;;4992729;28;20275;-81
2021/12/19 04:18:26;;;;;;;20.40;8.37;;;;;;;;;;4995862;28;20244;-80
2021/12/19 04:20:53;;;;;;;20.13;7.40;;;;;;;;;;4992050;28;20751;-80
2021/12/19 04:23:21;;;;;;;15.50;7.37;;;;;;;;;;4993642;28;20528;-80
2021/12/19 04:25:49;;;;;;;22.27;9.23;;;;;;;;;;4994009;28;20259;-81
2021/12/19 04:28:17;;;;;;;23.73;8.77;;;;;;;;;;4994998;28;20256;-80
2021/12/19 04:30:44;;;;;;;20.60;9.30;;;;;;;;;;4993473;28;20320;-81
2021/12/19 04:33:12;;;;;;;19.47;8.83;;;;;;;;;;4995895;28;20724;-80
2021/12/19 04:35:43;;;;;;;23.97;9.90;;;;;;;;;;4993275;28;20224;-80
2021/12/19 04:41:37;;;;;;;21.27;8.70;;;;;;;;;;4994152;28;20203;-79
2021/12/19 04:58:46;;;;;;;22.10;9.43;;;;;;;;;;5075356;28;20219;-79
2021/12/19 05:01:25;;;;;;;27.27;11.63;;;;;;;;;;5075349;28;20205;-79
2021/12/19 05:04:06;;;;;;;28.93;11.03;;;;;;;;;;5077065;28;20194;-78
2021/12/19 05:06:52;;;;;;;27.67;11.17;;;;;;;;;;5076123;28;20327;-81
2021/12/19 05:14:53;;;;;;;28.73;11.63;;;;;;;;;;5087057;28;20233;-79
2021/12/19 05:17:25;;;;;;;30.23;12.33;;;;;;;;;;5089348;28;20634;-79
2021/12/19 05:20:05;;;;;;;30.47;12.13;;;;;;;;;;5090604;28;20250;-79
2021/12/19 05:22:38;;;;;;;24.63;9.77;;;;;;;;;;5079909;28;20301;-79
2021/12/19 05:25:14;;;;;;;24.93;10.93;;;;;;;;;;5078115;28;20222;-79
2021/12/19 05:27:43;;;;;;;30.70;11.63;;;;;;;;;;5082274;28;20206;-79
2021/12/19 05:30:12;;;;;;;29.67;12.10;;;;;;;;;;5081720;28;21078;-79
2021/12/19 05:32:39;;;;;;;26.67;11.00;;;;;;;;;;5075450;28;20199;-78
2021/12/19 05:35:07;;;;;;;25.33;11.37;;;;;;;;;;5078939;28;20226;-79
2021/12/19 05:45:51;;;;;;;21.17;9.63;;;;;;;;;;5086057;28;20225;-79
2021/12/19 05:48:18;;;;;;;30.63;12.27;;;;;;;;;;5085551;28;20261;-80
2021/12/19 05:50:45;;;;;;;27.00;11.53;;;;;;;;;;5083867;28;20244;-79
2021/12/19 05:53:13;;;;;;;24.93;11.07;;;;;;;;;;5076084;28;20482;-80
2021/12/19 05:55:41;;;;;;;29.10;11.47;;;;;;;;;;5077845;28;20325;-80
2021/12/19 05:58:09;;;;;;;24.27;9.20;;;;;;;;;;5079713;28;20198;-79
2021/12/19 06:00:37;;;;;;;28.77;11.80;;;;;;;;;;5079323;28;20222;-81
2021/12/19 06:03:05;;;;;;;23.40;9.87;;;;;;;;;;5075598;28;20659;-80
2021/12/19 06:05:32;;;;;;;30.47;11.37;;;;;;;;;;5071204;28;20362;-80
2021/12/19 06:08:00;;;;;;;22.13;10.10;;;;;;;;;;5066362;28;20226;-80
2021/12/19 06:10:28;;;;;;;26.03;11.43;;;;;;;;;;5062298;28;20294;-80
2021/12/19 06:12:55;;;;;;;25.60;11.73;;;;;;;;;;5064213;28;20292;-79
2021/12/19 06:15:24;;;;;;;24.63;11.37;;;;;;;;;;5063833;28;20251;-80
2021/12/19 06:17:52;;;;;;;27.37;12.33;;;;;;;;;;5064328;28;20290;-80
2021/12/19 06:20:19;;;;;;;29.43;12.37;;;;;;;;;;5065116;28;20206;-81
2021/12/19 06:22:46;;;;;;;26.43;10.90;;;;;;;;;;5066848;28;20677;-80
2021/12/19 06:25:14;;;;;;;29.77;12.13;;;;;;;;;;5064177;28;20317;-80
2021/12/19 06:27:41;;;;;;;25.93;10.93;;;;;;;;;;5061316;28;20211;-80
2021/12/19 06:30:09;;;;;;;28.60;11.77;;;;;;;;;;5065933;28;20290;-80
2021/12/19 06:32:37;;;;;;;22.23;10.33;;;;;;;;;;5062686;28;20202;-80
2021/12/19 06:35:09;;;;;;;26.33;11.20;;;;;;;;;;5063260;28;20322;-81
2021/12/19 06:37:38;;;;;;;26.03;11.93;;;;;;;;;;5063015;28;20221;-80
2021/12/19 06:40:06;;;;;;;25.90;10.93;;;;;;;;;;5062401;28;20750;-81
2021/12/19 06:42:33;;;;;;;26.87;11.40;;;;;;;;;;5062687;28;20929;-81
2021/12/19 06:45:01;;;;;;;30.00;10.93;;;;;;;;;;5061050;28;20768;-82
2021/12/19 06:47:28;;;;;;;25.43;11.03;;;;;;;;;;5064733;28;20222;-82
2021/12/19 06:49:56;;;;;;;30.23;12.07;;;;;;;;;;5065182;28;20204;-81
2021/12/19 06:52:24;;;;;;;24.20;11.10;;;;;;;;;;5065514;28;20648;-81
2021/12/19 06:54:51;;;;;;;24.50;11.33;;;;;;;;;;5061811;28;20253;-80
2021/12/19 06:57:18;;;;;;;24.83;10.80;;;;;;;;;;5065524;28;20321;-79
2021/12/19 06:59:47;;;;;;;25.67;10.87;;;;;;;;;;5063460;28;20215;-80
2021/12/19 07:02:15;;;;;;;24.77;10.90;;;;;;;;;;5062449;28;20679;-80
2021/12/19 07:04:43;;;;;;;25.23;10.83;;;;;;;;;;5068422;28;21738;-80
2021/12/19 07:07:12;;;;;;;23.00;10.70;;;;;;;;;;5063757;28;20226;-80
2021/12/19 07:09:39;;;;;;;23.33;9.33;;;;;;;;;;5061877;28;20285;-80
2021/12/19 07:12:07;;;;;;;25.70;11.03;;;;;;;;;;5063512;28;20677;-80
2021/12/19 07:14:34;;;;;;;26.00;11.07;;;;;;;;;;5063822;28;20251;-80
2021/12/19 07:17:02;;;;;;;23.73;10.10;;;;;;;;;;5063131;28;20258;-80
2021/12/19 07:19:29;;;;;;;25.87;10.90;;;;;;;;;;5063957;28;20203;-79
2021/12/19 07:21:56;;;;;;;23.83;11.13;;;;;;;;;;5061089;28;20210;-80
2021/12/19 07:24:25;;;;;;;26.03;10.63;;;;;;;;;;5061020;28;20276;-80
2021/12/19 07:26:52;;;;;;;26.03;11.40;;;;;;;;;;5067335;28;20225;-80
2021/12/19 07:29:19;;;;;;;25.57;11.07;;;;;;;;;;5064332;28;20201;-79
2021/12/19 07:31:47;;;;;;;20.73;9.70;;;;;;;;;;5063835;28;20199;-80
2021/12/19 07:34:14;;;;;;;27.37;10.50;;;;;;;;;;5061571;28;20253;-81
2021/12/19 07:36:47;;;;;;;27.67;10.43;;;;;;;;;;5063405;28;20221;-81
2021/12/19 07:39:24;;;;;;;30.33;11.40;;;;;;;;;;5062869;28;20198;-81
2021/12/19 07:41:53;;;;;;;27.33;11.27;;;;;;;;;;5062725;28;20238;-82
2021/12/19 07:44:20;;;;;;;27.13;11.97;;;;;;;;;;5064719;28;20206;-81
2021/12/19 07:46:47;;;;;;;24.00;10.20;;;;;;;;;;5063059;28;20305;-81
2021/12/19 07:49:14;;;;;;;29.90;11.83;;;;;;;;;;5066704;28;20294;-81
2021/12/19 07:51:42;;;;;;;28.00;11.23;;;;;;;;;;5059329;28;20262;-81
2021/12/19 07:54:09;;;;;;;30.10;11.53;;;;;;;;;;5065663;28;20234;-80
2021/12/19 07:56:37;;;;;;;27.33;11.40;;;;;;;;;;5064667;28;20672;-80
2021/12/19 07:59:06;;;;;;;29.07;11.93;;;;;;;;;;5062922;28;20242;-80
2021/12/19 08:01:33;;;;;;;25.20;11.00;;;;;;;;;;5061886;28;20314;-80
2021/12/19 08:04:00;;;;;;;26.37;11.13;;;;;;;;;;5063838;28;20296;-80
2021/12/19 08:06:27;;;;;;;27.53;10.97;;;;;;;;;;5059741;28;20253;-80
2021/12/19 08:08:57;;;;;;;22.70;9.87;;;;;;;;;;5062208;28;20241;-80
2021/12/19 08:11:42;;;;;;;21.37;9.23;;;;;;;;;;5065065;28;20199;-80
2021/12/19 08:14:11;;;;;;;15.20;7.57;;;;;;;;;;5062687;28;20293;-79
2021/12/19 08:16:39;;;;;;;16.50;7.93;;;;;;;;;;5056309;22;20247;-79
2021/12/19 08:19:06;;;;;;;20.07;8.30;;;;;;;;;;4999039;28;20239;-79
2021/12/19 08:21:34;;;;;;;24.27;9.30;;;;;;;;;;4999847;28;20236;-79
2021/12/19 08:24:03;;;;;;;19.30;8.57;;;;;;;;;;4998468;28;20279;-80
2021/12/19 08:26:30;;;;;;;14.33;6.63;;;;;;;;;;4999262;28;20548;-80
2021/12/19 08:28:58;;;;;;;18.30;8.33;;;;;;;;;;4997261;28;20290;-81
2021/12/19 08:31:26;;;;;;;17.53;7.97;;;;;;;;;;4997871;28;20295;-80
2021/12/19 08:33:54;;;;;;;16.07;7.90;;;;;;;;;;4999928;28;20208;-80
2021/12/19 08:36:22;;;;;;;17.20;8.10;;;;;;;;;;5000484;28;20247;-81
2021/12/19 08:38:49;;;;;;;18.63;8.63;;;;;;;;;;4998484;28;20207;-80
2021/12/19 08:41:16;;;;;;;19.67;9.03;;;;;;;;;;5001402;28;20258;-80
2021/12/19 08:43:43;;;;;;;20.50;9.20;;;;;;;;;;5000409;28;20945;-80
2021/12/19 08:46:11;;;;;;;19.07;8.73;;;;;;;;;;5001068;28;20347;-80
2021/12/19 08:48:40;;;;;;;17.30;8.50;;;;;;;;;;4998607;28;20255;-80
2021/12/19 08:51:08;;;;;;;17.23;8.33;;;;;;;;;;4997510;28;20236;-80
2021/12/19 08:53:35;;;;;;;19.37;8.70;;;;;;;;;;4999764;28;20283;-80
2021/12/19 08:56:02;;;;;;;16.50;8.27;;;;;;;;;;4998839;28;20485;-80
2021/12/19 08:58:30;;;;;;;17.80;8.43;;;;;;;;;;4997287;28;20757;-80
2021/12/19 09:01:01;;;;;;;15.83;7.80;;;;;;;;;;4996835;28;20286;-80
2021/12/19 09:03:28;;;;;;;18.33;8.23;;;;;;;;;;4999599;28;20587;-79
2021/12/19 09:05:57;;;;;;;14.97;7.03;;;;;;;;;;4998188;28;20308;-79
2021/12/19 09:08:24;;;;;;;19.87;8.57;;;;;;;;;;5000390;28;20256;-79
2021/12/19 09:10:51;;;;;;;18.17;7.90;;;;;;;;;;4995564;28;20624;-80
2021/12/19 09:13:19;;;;;;;21.40;8.90;;;;;;;;;;5000697;28;20259;-80
2021/12/19 09:15:46;;;;;;;18.63;8.13;;;;;;;;;;5006473;28;20314;-80
2021/12/19 09:18:13;;;;;;;19.67;8.70;;;;;;;;;;5009749;28;20323;-80
2021/12/19 09:20:40;;;;;;;22.37;8.57;;;;;;;;;;5009108;28;20216;-81
2021/12/19 09:23:11;;;;;;;18.10;7.70;;;;;;;;;;5008652;28;20224;-81
2021/12/19 09:25:39;;;;;;;19.60;7.53;;;;;;;;;;5000146;28;20609;-80
2021/12/19 09:28:06;;;;;;;20.23;8.80;;;;;;;;;;5003679;28;20243;-80
2021/12/19 09:30:33;;;;;;;20.47;8.47;;;;;;;;;;4999918;28;20429;-80
2021/12/19 09:33:01;;;;;;;18.77;7.53;;;;;;;;;;4998182;28;20620;-80
2021/12/19 09:35:28;;;;;;;18.67;7.77;;;;;;;;;;5001789;28;20321;-80
2021/12/19 09:37:55;;;;;;;18.70;8.50;;;;;;;;;;5006364;28;20208;-80
2021/12/19 09:40:32;;;;;;;19.60;7.80;;;;;;;;;;5005971;28;20204;-80
2021/12/19 09:43:02;;;;;;;18.00;8.07;;;;;;;;;;5008129;28;20243;-80
2021/12/19 09:45:30;;;;;;;17.43;8.40;;;;;;;;;;5008329;28;20216;-79
2021/12/19 09:47:57;;;;;;;20.33;8.17;;;;;;;;;;5010417;28;20205;-80
2021/12/19 09:50:24;;;;;;;12.73;6.60;;;;;;;;;;5006186;28;20205;-80
2021/12/19 09:52:52;;;;;;;19.57;7.87;;;;;;;;;;5011138;28;20216;-80
2021/12/19 09:55:21;;;;;;;17.77;7.97;;;;;;;;;;5005017;28;20259;-79
2021/12/19 09:57:51;;;;;;;18.50;8.07;;;;;;;;;;5002414;28;20660;-79
2021/12/19 10:00:19;;;;;;;19.97;8.07;;;;;;;;;;5008697;28;20230;-78
2021/12/19 10:02:46;;;;;;;15.97;6.97;;;;;;;;;;5003823;28;20757;-78
2021/12/19 10:05:22;;;;;;;23.53;9.50;;;;;;;;;;5003032;28;20334;-78
2021/12/19 10:07:50;;;;;;;20.23;8.20;;;;;;;;;;5004514;28;20208;-78
2021/12/19 10:10:26;;;;;;;20.67;8.47;;;;;;;;;;5002997;28;20212;-79
2021/12/19 10:12:57;;;;;;;24.30;9.20;;;;;;;;;;5003748;28;20204;-79
2021/12/19 10:15:28;;;;;;;23.50;9.47;;;;;;;;;;5002205;28;20996;-78
2021/12/19 10:18:03;;;;;;;26.77;9.57;;;;;;;;;;5003142;28;20314;-79
2021/12/19 10:20:40;;;;;;;21.50;8.53;;;;;;;;;;5004458;28;20934;-79
2021/12/19 10:23:10;;;;;;;28.47;10.70;;;;;;;;;;5004324;28;20248;-79
2021/12/19 10:25:37;;;;;;;33.73;12.50;;;;;;;;;;5004291;28;20716;-79
2021/12/19 10:28:08;;;;;;;31.00;12.00;;;;;;;;;;5003079;28;20271;-78
2021/12/19 10:30:36;;;;;;;39.13;14.77;;;;;;;;;;5002246;28;20292;-78
2021/12/19 10:33:04;;;;;;;30.63;12.73;;;;;;;;;;5002312;28;20287;-79
2021/12/19 10:35:33;;;;;;;34.07;13.43;;;;;;;;;;5002400;28;20252;-78
2021/12/19 10:38:00;;;;;;;29.37;12.47;;;;;;;;;;5002510;28;20618;-78
2021/12/19 10:40:28;;;;;;;33.70;13.83;;;;;;;;;;5003464;28;20291;-78
2021/12/19 10:42:58;;;;;;;26.13;11.57;;;;;;;;;;5002209;28;20575;-78
2021/12/19 10:45:32;;;;;;;29.00;11.90;;;;;;;;;;5002363;28;20271;-78
2021/12/19 10:48:12;;;;;;;29.10;11.87;;;;;;;;;;5003899;28;20689;-78
2021/12/19 10:50:43;;;;;;;23.73;10.70;;;;;;;;;;5004481;28;20295;-79
2021/12/19 10:53:10;;;;;;;23.47;9.57;;;;;;;;;;5000297;28;20888;-80
2021/12/19 10:55:43;;;;;;;21.83;9.67;;;;;;;;;;5000567;28;20223;-79
2021/12/19 10:58:28;;;;;;;14.50;7.27;;;;;;;;;;4999836;28;20204;-77
2021/12/19 11:00:58;;;;;;;14.00;6.30;;;;;;;;;;4997802;28;20239;-77
2021/12/19 11:03:43;;;;;;;12.77;6.03;;;;;;;;;;4999867;28;20255;-77
2021/12/19 11:06:15;;;;;;;16.53;7.17;;;;;;;;;;4999447;28;20278;-78
2021/12/19 11:08:43;;;;;;;12.03;6.43;;;;;;;;;;5000157;28;20682;-78
2021/12/19 11:11:16;;;;;;;12.93;6.37;;;;;;;;;;4998028;28;20737;-78
2021/12/19 11:13:43;;;;;;;13.60;6.27;;;;;;;;;;5000110;28;20201;-78
2021/12/19 11:16:12;;;;;;;10.77;5.03;;;;;;;;;;5001807;28;20278;-78
2021/12/19 11:18:39;;;;;;;10.97;4.90;;;;;;;;;;5001230;28;20259;-78
2021/12/19 11:21:06;;;;;;;8.83;4.47;;;;;;;;;;4999731;28;20197;-77
2021/12/19 11:23:34;;;;;;;10.23;4.83;;;;;;;;;;5008847;28;20201;-77
2021/12/19 11:26:01;;;;;;;9.27;5.13;;;;;;;;;;5006366;28;20257;-77
2021/12/19 11:28:28;;;;;;;11.47;4.97;;;;;;;;;;5001530;28;20255;-78
2021/12/19 11:30:56;;;;;;;10.47;5.13;;;;;;;;;;4997143;28;20452;-77
2021/12/19 11:33:33;;;;;;;10.27;5.00;;;;;;;;;;4999108;28;20212;-77
2021/12/19 11:36:00;;;;;;;8.43;3.97;;;;;;;;;;4994626;28;20769;-77
2021/12/19 11:38:29;;;;;;;10.03;4.90;;;;;;;;;;5000551;28;20278;-77
2021/12/19 11:40:56;;;;;;;9.00;4.33;;;;;;;;;;4995012;28;20205;-77
2021/12/19 11:43:23;;;;;;;9.97;4.70;;;;;;;;;;5000163;28;20351;-77
2021/12/19 11:45:58;;;;;;;9.40;4.60;;;;;;;;;;4998379;28;20778;-78
2021/12/19 11:48:30;;;;;;;11.70;5.03;;;;;;;;;;4998575;28;20211;-78
2021/12/19 11:50:58;;;;;;;8.97;4.93;;;;;;;;;;5001147;28;20212;-77
2021/12/19 11:53:29;;;;;;;8.60;4.37;;;;;;;;;;4998695;28;20224;-77
2021/12/19 11:55:59;;;;;;;10.53;5.30;;;;;;;;;;4997715;28;20236;-78
2021/12/19 11:58:33;;;;;;;8.97;4.70;;;;;;;;;;4997800;28;20209;-77
2021/12/19 12:01:02;;;;;;;14.73;5.03;;;;;;;;;;5001832;28;20203;-77
2021/12/19 12:03:59;;;;;;;10.23;5.23;;;;;;;;;;5003060;28;20272;-77
2021/12/19 12:06:36;;;;;;;12.13;5.63;;;;;;;;;;5003271;28;20242;-77
2021/12/19 12:09:07;;;;;;;15.80;6.67;;;;;;;;;;5004705;28;20212;-77
2021/12/19 12:11:35;;;;;;;13.80;6.43;;;;;;;;;;5003650;28;20212;-77
2021/12/19 12:14:17;;;;;;;16.03;6.40;;;;;;;;;;4993544;28;20372;-77
2021/12/19 12:16:52;;;;;;;15.87;6.97;;;;;;;;;;4997051;28;20244;-77
2021/12/19 12:19:37;;;;;;;19.17;7.63;;;;;;;;;;4996965;28;20299;-77
2021/12/19 12:22:20;;;;;;;18.77;7.60;;;;;;;;;;4999047;28;20255;-77
2021/12/19 12:25:02;;;;;;;20.40;8.30;;;;;;;;;;5003257;28;20224;-77
2021/12/19 12:27:37;;;;;;;15.70;7.33;;;;;;;;;;5001665;28;20674;-77
2021/12/19 12:30:05;;;;;;;20.50;8.03;;;;;;;;;;4997787;28;20633;-78
2021/12/19 12:32:32;;;;;;;18.83;9.17;;;;;;;;;;4999392;28;20295;-77
2021/12/19 12:34:59;;;;;;;23.53;9.37;;;;;;;;;;4998738;28;20216;-77
2021/12/19 12:37:28;;;;;;;19.13;9.10;;;;;;;;;;4999724;28;20665;-78
2021/12/19 12:40:15;;;;;;;20.63;9.33;;;;;;;;;;4994983;28;20205;-78
2021/12/19 12:43:08;;;;;;;20.77;9.57;;;;;;;;;;5002899;28;20262;-78
2021/12/19 12:45:48;;;;;;;20.00;9.00;;;;;;;;;;4999699;28;20770;-77
2021/12/19 12:48:26;;;;;;;18.90;8.87;;;;;;;;;;4996802;28;20420;-78
2021/12/19 12:50:53;;;;;;;17.00;8.10;;;;;;;;;;4999073;28;20208;-78
2021/12/19 12:53:28;;;;;;;20.80;9.23;;;;;;;;;;4998796;28;20268;-77
2021/12/19 12:56:01;;;;;;;17.87;8.10;;;;;;;;;;5001145;28;20232;-77
2021/12/19 12:58:35;;;;;;;19.63;9.47;;;;;;;;;;5000016;28;20327;-77
2021/12/19 13:01:19;;;;;;;19.17;9.20;;;;;;;;;;5002018;28;20209;-78
2021/12/19 13:04:14;;;;;;;20.63;9.47;;;;;;;;;;5000655;28;20332;-77
2021/12/19 13:06:46;;;;;;;28.67;13.87;;;;;;;;;;5002520;28;20221;-77
2021/12/19 13:09:15;;;;;;;17.30;8.70;;;;;;;;;;5002993;28;20204;-78
2021/12/19 13:11:42;;;;;;;15.57;7.10;;;;;;;;;;5001564;28;20260;-77
2021/12/19 13:14:19;;;;;;;13.57;7.03;;;;;;;;;;4999458;28;20287;-79
2021/12/19 13:16:48;;;;;;;16.20;7.33;;;;;;;;;;5004944;28;20229;-79
2021/12/19 13:19:38;;;;;;;16.83;7.63;;;;;;;;;;5008617;28;20231;-78
2021/12/19 13:22:06;;;;;;;19.07;9.73;;;;;;;;;;5005854;28;20238;-79
2021/12/19 13:24:35;;;;;;;17.83;9.10;;;;;;;;;;5001859;28;20236;-79
2021/12/19 13:27:13;;;;;;;14.83;7.83;;;;;;;;;;5001448;28;20269;-78
2021/12/19 13:29:43;;;;;;;13.70;6.63;;;;;;;;;;5004264;28;20205;-78
2021/12/19 13:32:20;;;;;;;19.70;9.93;;;;;;;;;;5006359;28;20213;-79
2021/12/19 13:34:48;;;;;;;15.87;7.53;;;;;;;;;;5003305;28;20796;-77
2021/12/19 13:37:15;;;;;;;13.93;6.93;;;;;;;;;;5000709;28;20730;-81
2021/12/19 13:39:45;;;;;;;12.70;6.83;;;;;;;;;;4998954;28;20196;-79
2021/12/19 13:42:13;;;;;;;20.97;10.37;;;;;;;;;;4995917;28;20296;-78
2021/12/19 13:44:41;;;;;;;19.53;10.30;;;;;;;;;;5002146;28;20208;-79
2021/12/19 13:47:14;;;;;;;14.30;7.77;;;;;;;;;;5001371;28;20235;-79
2021/12/19 13:49:41;;;;;;;13.60;6.87;;;;;;;;;;4997157;28;20316;-79
2021/12/19 13:52:09;;;;;;;21.77;11.60;;;;;;;;;;5006117;28;20554;-79
2021/12/19 13:54:40;;;;;;;11.30;6.70;;;;;;;;;;4995979;28;20650;-78
2021/12/19 13:57:20;;;;;;;9.50;5.67;;;;;;;;;;5000168;28;20232;-78
2021/12/19 13:59:47;;;;;;;16.33;8.30;;;;;;;;;;5006625;28;20231;-78
2021/12/19 14:02:16;;;;;;;10.83;6.07;;;;;;;;;;5008270;28;20252;-79
2021/12/19 14:04:43;;;;;;;10.60;5.53;;;;;;;;;;4997912;28;20225;-78
2021/12/19 14:07:15;;;;;;;16.90;9.37;;;;;;;;;;5009150;28;20239;-78
2021/12/19 14:09:44;;;;;;;12.07;6.13;;;;;;;;;;5003121;28;20634;-79
2021/12/19 14:12:12;;;;;;;12.93;6.67;;;;;;;;;;5000928;28;20202;-79
2021/12/19 14:14:39;;;;;;;10.63;6.47;;;;;;;;;;5007846;28;20713;-79
2021/12/19 14:17:07;;;;;;;13.83;7.00;;;;;;;;;;5048621;23;20735;-81
2021/12/19 14:19:37;;;;;;;13.00;7.50;;;;;;;;;;5009858;28;20208;-82
2021/12/19 14:22:11;;;;;;;13.17;7.10;;;;;;;;;;5013057;28;20279;-83
2021/12/19 14:24:41;;;;;;;15.93;7.47;;;;;;;;;;5015673;28;20239;-83
2021/12/19 14:27:13;;;;;;;11.00;5.27;;;;;;;;;;5007008;28;20642;-83
2021/12/19 14:29:41;;;;;;;13.00;6.93;;;;;;;;;;5007619;28;20263;-83
2021/12/19 14:32:10;;;;;;;13.13;7.37;;;;;;;;;;5011335;28;20243;-84
2021/12/19 14:34:39;;;;;;;12.37;6.83;;;;;;;;;;5011882;28;20217;-83
2021/12/19 14:37:15;;;;;;;16.77;8.77;;;;;;;;;;5012213;28;20327;-83
2021/12/19 14:39:42;;;;;;;13.93;7.47;;;;;;;;;;5012448;28;20204;-83
2021/12/19 14:42:11;;;;;;;11.23;6.07;;;;;;;;;;5009205;28;20589;-83
2021/12/19 14:44:39;;;;;;;13.73;7.13;;;;;;;;;;5012396;28;20515;-83
2021/12/19 14:47:07;;;;;;;14.37;6.77;;;;;;;;;;5010615;28;20240;-83
2021/12/19 14:49:40;;;;;;;13.70;6.97;;;;;;;;;;5010930;28;20267;-83
2021/12/19 14:52:07;;;;;;;11.70;5.50;;;;;;;;;;5010039;28;20232;-81
2021/12/19 14:54:34;;;;;;;13.83;6.53;;;;;;;;;;5013208;28;20244;-81
2021/12/19 14:57:02;;;;;;;13.03;6.57;;;;;;;;;;5012374;28;20705;-82
2021/12/19 14:59:30;;;;;;;12.53;6.43;;;;;;;;;;5010096;28;20247;-82
2021/12/19 15:01:57;;;;;;;12.13;6.83;;;;;;;;;;5012233;28;20223;-81
2021/12/19 15:04:25;;;;;;;13.43;6.70;;;;;;;;;;5009911;28;20208;-81
2021/12/19 15:06:59;;;;;;;12.10;6.17;;;;;;;;;;5012505;28;20287;-81
2021/12/19 15:09:29;;;;;;;9.67;5.47;;;;;;;;;;5013262;28;20211;-82
2021/12/19 15:11:57;;;;;;;10.80;6.17;;;;;;;;;;5011213;28;20592;-80
2021/12/19 15:14:24;;;;;;;9.87;5.43;;;;;;;;;;5013959;28;20212;-81
2021/12/19 15:16:52;;;;;;;10.27;5.57;;;;;;;;;;5012086;28;20228;-81
2021/12/19 15:19:20;;;;;;;9.00;5.10;;;;;;;;;;5011578;28;20240;-81
2021/12/19 15:21:47;;;;;;;11.50;5.83;;;;;;;;;;5009966;28;20201;-81
2021/12/19 15:24:16;;;;;;;10.93;5.90;;;;;;;;;;5012934;28;20272;-81
2021/12/19 15:26:43;;;;;;;11.17;5.43;;;;;;;;;;5011850;28;20256;-81
2021/12/19 15:29:10;;;;;;;11.90;6.23;;;;;;;;;;5012748;28;20243;-80
2021/12/19 15:31:38;;;;;;;11.13;6.27;;;;;;;;;;5016822;28;20211;-80
2021/12/19 15:34:05;;;;;;;10.43;5.87;;;;;;;;;;5016742;28;20282;-81
2021/12/19 15:36:32;;;;;;;9.50;5.57;;;;;;;;;;5015914;28;20224;-81